Time;durP1;ratioP1;P1;durP2;ratioP2;P2;SDS_P1;SDS_P2;PMS_P1;PMS_P2;Temp;Humidity;BMP_temperature;BMP_pressure;BME280_temperature;BME280_humidity;BME280_pressure;Samples;Min_cycle;Max_cycle;Signal;HPM_P1;HPM_P2
2022/12/15 00:40:44;;;;;;;5.28;2.58;;;;;;;-6.75;100.00;100201.53;6247840;28;20003;-74
2022/12/15 00:43:46;;;;;;;3.67;2.35;;;;;;;-6.81;100.00;100206.59;6247911;28;20046;-74
2022/12/15 00:46:55;;;;;;;4.07;2.83;;;;;;;-6.82;100.00;100203.19;6247771;28;20057;-73
2022/12/15 01:23:11;;;;;;;6.80;2.42;;;;;;;-6.67;100.00;100205.88;6246964;28;20128;-73
2022/12/15 01:26:13;;;;;;;7.10;4.22;;;;;;;-6.64;100.00;100215.25;6246719;28;20461;-73
2022/12/15 01:29:14;;;;;;;15.30;3.63;;;;;;;-6.57;100.00;100216.16;6246675;28;20053;-74
2022/12/15 01:32:16;;;;;;;7.55;2.85;;;;;;;-6.56;100.00;100215.31;6246618;28;20053;-74
2022/12/15 01:35:19;;;;;;;6.90;3.33;;;;;;;-6.56;100.00;100208.50;6246624;28;20064;-74
2022/12/15 01:38:21;;;;;;;6.60;2.55;;;;;;;-6.57;100.00;100211.91;6246833;28;20041;-74
2022/12/15 01:41:23;;;;;;;10.77;4.20;;;;;;;-6.56;100.00;100212.75;6246549;28;20052;-74
2022/12/15 01:44:24;;;;;;;6.30;3.88;;;;;;;-6.54;100.00;100223.84;6246603;28;20052;-74
2022/12/15 01:47:27;;;;;;;14.65;3.15;;;;;;;-6.54;100.00;100219.59;6246448;28;20060;-74
2022/12/15 01:50:32;;;;;;;6.47;4.20;;;;;;;-6.51;100.00;100218.75;6246454;28;20049;-74
2022/12/15 01:53:38;;;;;;;10.73;3.80;;;;;;;-6.51;100.00;100226.41;6246303;28;20056;-74
2022/12/15 01:56:42;;;;;;;3.78;2.92;;;;;;;-6.54;100.00;100226.38;6246540;28;20531;-74
2022/12/15 01:59:49;;;;;;;7.70;3.95;;;;;;;-6.55;100.00;100233.19;6246323;28;20053;-74
2022/12/15 02:02:51;;;;;;;6.45;3.15;;;;;;;-6.52;100.00;100243.47;6246491;28;20130;-74
2022/12/15 02:05:55;;;;;;;7.28;3.97;;;;;;;-6.52;100.00;100240.91;6246433;28;20497;-74
2022/12/15 02:08:59;;;;;;;4.93;2.92;;;;;;;-6.45;100.00;100237.56;6246539;28;20058;-74
2022/12/15 02:12:07;;;;;;;18.98;2.40;;;;;;;-6.43;100.00;100247.78;6246210;28;20524;-74
2022/12/15 02:15:19;;;;;;;12.00;4.00;;;;;;;-6.46;100.00;100247.75;6246166;28;20045;-74
2022/12/15 02:18:27;;;;;;;4.50;3.13;;;;;;;-6.49;100.00;100250.31;6246220;28;20045;-74
2022/12/15 02:21:35;;;;;;;;;;;;;;;-6.43;100.00;100258.00;6246788;28;20053;-73
2022/12/15 02:25:03;;;;;;;8.53;4.03;;;;;;;-6.36;100.00;100258.91;6245871;28;20411;-74
2022/12/15 02:28:08;;;;;;;4.17;2.33;;;;;;;-6.28;100.00;100265.78;6246065;28;20292;-74
2022/12/15 02:34:58;;;;;;;7.20;2.90;;;;;;;-6.30;100.00;100271.75;6139007;29;20439;-73
2022/12/15 02:38:00;;;;;;;4.57;2.70;;;;;;;-6.34;100.00;100270.00;6145787;29;20051;-74
2022/12/15 02:41:03;;;;;;;6.07;3.20;;;;;;;-6.34;100.00;100280.22;6240708;28;20057;-73
2022/12/15 02:44:10;;;;;;;14.27;4.50;;;;;;;-6.31;100.00;100291.34;6249033;28;20516;-74
2022/12/15 02:47:32;;;;;;;11.55;4.70;;;;;;;-6.30;100.00;100280.25;6248988;28;20052;-74
2022/12/15 02:50:51;;;;;;;10.95;3.85;;;;;;;-6.29;100.00;100274.31;6246196;28;20055;-74
2022/12/15 02:54:07;;;;;;;6.32;4.38;;;;;;;-6.26;100.00;100276.03;6250164;28;20057;-74
2022/12/15 02:57:19;;;;;;;7.18;3.40;;;;;;;-6.22;100.00;100270.97;6250637;28;20061;-74
2022/12/15 03:00:21;;;;;;;2.58;1.88;;;;;;;-6.23;100.00;100271.78;6250086;28;20045;-74
2022/12/15 03:03:26;;;;;;;9.45;4.20;;;;;;;-6.28;100.00;100270.88;6250096;28;20421;-74
2022/12/15 03:06:28;;;;;;;9.13;4.05;;;;;;;-6.22;100.00;100276.06;6250162;28;20061;-74
2022/12/15 03:09:30;;;;;;;12.40;3.88;;;;;;;-6.25;100.00;100276.03;6250047;28;20412;-74
2022/12/15 03:12:32;;;;;;;11.35;4.30;;;;;;;-6.13;100.00;100280.41;6249882;28;20053;-74
2022/12/15 03:15:33;;;;;;;5.15;2.50;;;;;;;-6.08;100.00;100273.59;6249996;28;20045;-74
2022/12/15 03:18:37;;;;;;;6.53;2.83;;;;;;;-6.02;100.00;100277.91;6249037;28;20423;-74
2022/12/15 03:21:38;;;;;;;6.40;2.35;;;;;;;-6.03;100.00;100276.19;6249919;28;20053;-74
2022/12/15 03:24:39;;;;;;;5.55;3.70;;;;;;;-6.01;100.00;100277.03;6249563;28;20054;-74
2022/12/15 03:27:43;;;;;;;4.25;2.72;;;;;;;-6.01;100.00;100277.03;6249671;28;20049;-74
2022/12/15 03:30:44;;;;;;;7.03;3.40;;;;;;;-6.05;100.00;100283.84;6249251;28;20077;-74
2022/12/15 03:33:47;;;;;;;7.47;3.42;;;;;;;-6.10;100.00;100290.63;6249335;28;20053;-74
2022/12/15 03:36:48;;;;;;;11.07;3.72;;;;;;;-6.18;100.00;100290.56;6249615;28;20057;-74
2022/12/15 03:39:50;;;;;;;7.38;3.33;;;;;;;-6.21;100.00;100293.13;6249239;28;20056;-74
2022/12/15 03:42:51;;;;;;;5.97;2.83;;;;;;;-6.16;100.00;100286.31;6249487;28;20505;-74
2022/12/15 03:45:53;;;;;;;4.05;2.28;;;;;;;-6.08;100.00;100291.50;6249054;28;20045;-74
2022/12/15 03:48:55;;;;;;;9.05;3.10;;;;;;;-6.09;100.00;100291.47;6249348;28;20053;-74
2022/12/15 03:51:57;;;;;;;3.90;3.10;;;;;;;-6.10;100.00;100290.63;6248463;28;20424;-74
2022/12/15 03:54:58;;;;;;;4.18;2.72;;;;;;;-6.13;100.00;100290.63;6248743;28;20489;-74
2022/12/15 03:58:00;;;;;;;7.13;3.45;;;;;;;-6.17;100.00;100287.19;6249046;28;20053;-74
2022/12/15 04:01:10;;;;;;;4.10;2.55;;;;;;;-6.14;100.00;100291.44;6249003;28;20052;-74
2022/12/15 04:04:12;;;;;;;5.55;3.40;;;;;;;-6.17;100.00;100297.41;6248727;28;20505;-74
2022/12/15 04:07:14;;;;;;;5.10;3.75;;;;;;;-6.16;100.00;100299.13;6248841;28;20056;-74
2022/12/15 04:10:15;;;;;;;6.70;3.92;;;;;;;-6.07;100.00;100295.75;6248818;28;20050;-74
2022/12/15 04:13:17;;;;;;;5.80;2.42;;;;;;;-6.03;100.00;100300.06;6248450;28;20140;-73
2022/12/15 04:16:18;;;;;;;6.70;3.08;;;;;;;-5.95;100.00;100297.53;6248581;28;20061;-73
2022/12/15 04:22:43;;;;;;;5.53;3.30;;;;;;;-5.96;100.00;100313.72;6248398;28;20085;-73
2022/12/15 05:32:12;;;;;;;2.83;2.53;;;;;;;-5.92;100.00;100339.34;6246769;28;20041;-73
2022/12/15 05:35:13;;;;;;;10.18;4.47;;;;;;;-5.90;100.00;100345.31;6246836;28;20046;-73
2022/12/15 05:38:15;;;;;;;13.35;3.53;;;;;;;-5.84;100.00;100344.50;6246929;28;20045;-72
2022/12/15 05:41:19;;;;;;;3.05;2.13;;;;;;;-5.74;100.00;100341.13;6245778;28;20468;-73
2022/12/15 05:44:21;;;;;;;15.98;3.78;;;;;;;-5.74;100.00;100350.50;6245511;28;20053;-73
2022/12/15 05:47:22;;;;;;;3.60;3.08;;;;;;;-5.72;100.00;100354.81;6245061;28;20435;-73
2022/12/15 05:50:24;;;;;;;8.18;3.90;;;;;;;-5.75;100.00;100359.91;6244889;28;20053;-73
2022/12/15 05:53:25;;;;;;;4.13;3.30;;;;;;;-5.69;100.00;100364.19;6244839;28;20410;-72
2022/12/15 05:56:28;;;;;;;12.60;4.07;;;;;;;-5.67;100.00;100360.81;6245012;28;20436;-72
2022/12/15 05:59:30;;;;;;;6.78;2.25;;;;;;;-5.58;100.00;100372.81;6242443;28;20046;-72
2022/12/15 06:02:31;;;;;;;8.63;3.22;;;;;;;-5.66;100.00;100374.47;6245297;28;20431;-73
2022/12/15 06:05:33;;;;;;;4.40;2.78;;;;;;;-5.62;100.00;100366.81;6246218;28;20049;-73
2022/12/15 06:08:37;;;;;;;8.50;3.83;;;;;;;-5.58;100.00;100377.06;6246707;28;20054;-73
2022/12/15 06:11:40;;;;;;;7.30;3.92;;;;;;;-5.58;100.00;100375.38;6246131;28;20049;-73
2022/12/15 06:14:41;;;;;;;9.30;4.20;;;;;;;-5.50;100.00;100383.06;6244714;28;20042;-72
2022/12/15 06:17:43;;;;;;;4.82;3.05;;;;;;;-5.53;100.00;100377.97;6246842;28;20428;-73
2022/12/15 06:20:44;;;;;;;3.63;2.80;;;;;;;-5.58;100.00;100385.59;6249681;28;20041;-72
2022/12/15 06:23:46;;;;;;;3.97;2.90;;;;;;;-5.53;100.00;100386.50;6249448;28;20051;-72
2022/12/15 06:26:49;;;;;;;5.00;3.78;;;;;;;-5.49;100.00;100389.94;6249520;28;20493;-73
2022/12/15 06:29:51;;;;;;;11.20;4.70;;;;;;;-5.48;100.00;100405.28;6249428;28;20052;-72
2022/12/15 06:32:53;;;;;;;11.73;4.80;;;;;;;-5.51;100.00;100399.28;6249229;28;20049;-73
2022/12/15 06:35:55;;;;;;;9.25;2.75;;;;;;;-5.59;100.00;100403.50;6248997;28;20413;-72
2022/12/15 06:38:58;;;;;;;10.98;4.95;;;;;;;-5.58;100.00;100402.69;6249255;28;20060;-72
2022/12/15 06:42:02;;;;;;;4.75;2.95;;;;;;;-5.62;100.00;100415.44;6249180;28;20053;-72
2022/12/15 06:45:04;;;;;;;3.58;2.58;;;;;;;-5.65;100.00;100402.59;6246134;28;20076;-72
2022/12/15 06:48:06;;;;;;;4.78;2.85;;;;;;;-5.62;100.00;100409.47;6249138;28;20052;-73
2022/12/15 06:51:08;;;;;;;3.75;2.45;;;;;;;-5.65;100.00;100412.00;6248878;28;20050;-72
2022/12/15 06:54:09;;;;;;;12.00;3.38;;;;;;;-5.66;100.00;100420.53;6248851;28;20164;-72
2022/12/15 06:57:12;;;;;;;4.13;2.50;;;;;;;-5.69;100.00;100416.22;6248794;28;20064;-73
2022/12/15 07:00:14;;;;;;;10.90;3.60;;;;;;;-5.63;100.00;100413.72;6248608;28;20046;-73
2022/12/15 07:03:18;;;;;;;8.25;3.05;;;;;;;-5.61;100.00;100411.16;6248880;28;20041;-72
2022/12/15 07:06:19;;;;;;;5.70;2.97;;;;;;;-5.63;100.00;100418.84;6248292;28;20420;-72
2022/12/15 07:09:21;;;;;;;7.78;3.95;;;;;;;-5.63;100.00;100423.97;6249150;28;20115;-73
2022/12/15 07:12:24;;;;;;;7.65;3.97;;;;;;;-5.65;100.00;100432.47;6249644;28;20068;-73
2022/12/15 07:15:26;;;;;;;11.57;4.95;;;;;;;-5.64;100.00;100434.19;6250101;28;20049;-72
2022/12/15 07:18:28;;;;;;;7.25;4.00;;;;;;;-5.62;100.00;100438.47;6249868;28;20401;-73
2022/12/15 07:21:29;;;;;;;8.65;3.05;;;;;;;-5.62;100.00;100445.31;6249961;28;20061;-73
2022/12/15 07:24:31;;;;;;;3.33;1.70;;;;;;;-5.59;100.00;100452.97;6249633;28;20056;-73
2022/12/15 07:27:34;;;;;;;4.18;2.97;;;;;;;-5.58;100.00;100454.72;6249062;28;20049;-72
2022/12/15 07:30:35;;;;;;;7.05;3.17;;;;;;;-5.56;100.00;100457.28;6249695;28;20077;-73
2022/12/15 07:33:38;;;;;;;8.43;3.40;;;;;;;-5.50;100.00;100467.56;6249735;28;20054;-72
2022/12/15 07:36:39;;;;;;;4.18;2.25;;;;;;;-5.52;100.00;100467.56;6249374;28;20429;-73
2022/12/15 07:39:41;;;;;;;3.70;3.13;;;;;;;-5.52;100.00;100467.56;6249271;28;20053;-73
2022/12/15 07:42:43;;;;;;;4.68;3.15;;;;;;;-5.49;100.00;100472.69;6249252;28;20406;-73
2022/12/15 07:45:50;;;;;;;5.45;2.33;;;;;;;-5.50;100.00;100478.66;6249356;28;20041;-72
2022/12/15 07:48:52;;;;;;;7.05;4.10;;;;;;;-5.44;100.00;100488.09;6249290;28;20057;-73
2022/12/15 07:51:57;;;;;;;5.60;3.15;;;;;;;-5.42;100.00;100499.19;6249066;28;20049;-73
2022/12/15 07:54:58;;;;;;;5.63;3.60;;;;;;;-5.41;100.00;100486.41;6248926;28;20045;-73
2022/12/15 07:58:01;;;;;;;9.80;3.35;;;;;;;-5.44;100.00;100486.38;6248989;28;20049;-72
2022/12/15 08:01:05;;;;;;;6.20;3.67;;;;;;;-5.43;100.00;100482.13;6248990;28;20072;-73
2022/12/15 08:04:06;;;;;;;4.88;2.97;;;;;;;-5.41;100.00;100491.50;6248840;28;20049;-75
2022/12/15 08:07:09;;;;;;;4.32;2.95;;;;;;;-5.34;100.00;100500.13;6249165;28;20057;-73
2022/12/15 08:10:10;;;;;;;2.97;2.22;;;;;;;-5.31;100.00;100501.81;6248680;28;20060;-73
2022/12/15 08:13:14;;;;;;;3.60;3.13;;;;;;;-5.32;100.00;100495.00;6248783;28;20049;-72
2022/12/15 08:16:15;;;;;;;8.30;4.72;;;;;;;-5.30;100.00;100506.97;6248723;28;20049;-73
2022/12/15 08:19:17;;;;;;;5.90;3.50;;;;;;;-5.29;100.00;100506.13;6248455;28;20060;-73
2022/12/15 08:22:19;;;;;;;6.57;2.72;;;;;;;-5.24;100.00;100513.84;6248411;28;20056;-73
2022/12/15 08:25:20;;;;;;;8.48;3.20;;;;;;;-5.19;100.00;100514.72;6248110;28;20048;-72
2022/12/15 08:28:23;;;;;;;6.72;3.88;;;;;;;-5.13;100.00;100519.91;6248481;28;20057;-72
2022/12/15 08:31:25;;;;;;;8.68;5.20;;;;;;;-5.11;100.00;100519.06;6248127;28;20049;-73
2022/12/15 08:34:26;;;;;;;4.57;3.42;;;;;;;-5.06;100.00;100519.09;6246580;28;20049;-73
2022/12/15 08:37:28;;;;;;;8.23;3.80;;;;;;;-5.05;100.00;100530.19;6248199;28;20061;-73
2022/12/15 08:40:29;;;;;;;6.65;3.45;;;;;;;-4.99;100.00;100536.22;6246775;28;20052;-73
2022/12/15 08:43:32;;;;;;;5.57;3.03;;;;;;;-4.97;100.00;100538.78;6246414;28;20052;-73
2022/12/15 08:46:34;;;;;;;6.70;3.95;;;;;;;-4.92;100.00;100542.22;6247694;28;20052;-72
2022/12/15 08:49:36;;;;;;;6.50;3.88;;;;;;;-4.87;100.00;100537.97;6247862;28;20049;-75
2022/12/15 08:52:40;;;;;;;7.30;3.60;;;;;;;-4.79;100.00;100538.88;6247617;28;20045;-73
2022/12/15 08:55:41;;;;;;;8.43;4.28;;;;;;;-4.75;100.00;100540.63;6247603;28;20045;-72
2022/12/15 08:58:45;;;;;;;20.52;5.78;;;;;;;-4.72;100.00;100548.34;6247693;28;20448;-73
2022/12/15 09:01:47;;;;;;;6.40;4.10;;;;;;;-4.60;100.00;100550.94;6247459;28;20398;-73
2022/12/15 09:04:49;;;;;;;16.63;6.03;;;;;;;-4.56;100.00;100561.22;6247297;28;20519;-74
2022/12/15 09:07:54;;;;;;;11.95;4.05;;;;;;;-4.51;100.00;100550.13;6247642;28;20139;-73
2022/12/15 09:10:57;;;;;;;13.60;4.45;;;;;;;-4.48;100.00;100552.72;6247274;28;20049;-73
2022/12/15 09:14:00;;;;;;;9.77;4.68;;;;;;;-4.46;100.00;100552.72;6246985;28;20080;-73
2022/12/15 09:17:01;;;;;;;6.30;3.58;;;;;;;-4.43;100.00;100553.59;6246922;28;20049;-73
2022/12/15 09:20:04;;;;;;;8.52;3.33;;;;;;;-4.37;100.00;100555.31;6247451;28;20049;-72
2022/12/15 09:23:05;;;;;;;8.13;4.43;;;;;;;-4.31;100.00;100554.50;6246839;28;20508;-73
2022/12/15 09:26:09;;;;;;;12.45;4.53;;;;;;;-4.26;100.00;100547.69;6247053;28;20050;-72
2022/12/15 09:29:13;;;;;;;10.00;5.90;;;;;;;-4.21;100.00;100552.00;6247056;28;20053;-72
2022/12/15 09:32:14;;;;;;;12.43;4.38;;;;;;;-4.16;100.00;100547.72;6246568;28;20053;-73
2022/12/15 09:35:17;;;;;;;10.00;4.97;;;;;;;-4.13;100.00;100555.44;6246927;28;20052;-73
2022/12/15 09:38:18;;;;;;;12.70;6.00;;;;;;;-4.10;100.00;100552.88;6245634;28;20073;-72
2022/12/15 09:41:23;;;;;;;8.50;4.25;;;;;;;-4.03;100.00;100558.88;6245041;28;20508;-73
2022/12/15 09:44:28;;;;;;;22.27;6.28;;;;;;;-3.98;100.00;100561.47;6244800;28;20045;-72
2022/12/15 09:47:40;;;;;;;11.82;5.57;;;;;;;-3.97;100.00;100558.03;6245115;28;20042;-73
2022/12/15 09:50:44;;;;;;;7.65;4.65;;;;;;;-3.93;100.00;100562.34;6242117;28;20520;-73
2022/12/15 09:53:47;;;;;;;15.98;6.32;;;;;;;-3.88;100.00;100571.75;6244845;28;20046;-73
2022/12/15 09:56:54;;;;;;;12.63;5.25;;;;;;;-3.79;100.00;100572.63;6244745;28;20053;-73
2022/12/15 10:00:06;;;;;;;14.60;7.57;;;;;;;-3.74;100.00;100565.78;6244953;28;20049;-73
2022/12/15 10:03:29;;;;;;;11.13;4.95;;;;;;;-3.68;100.00;100568.38;6243352;28;20187;-73
2022/12/15 10:06:36;;;;;;;5.18;3.63;;;;;;;-3.59;100.00;100566.69;6244123;28;20041;-73
2022/12/15 10:09:38;;;;;;;8.48;4.32;;;;;;;-3.47;100.00;100559.84;6246385;28;20075;-72
2022/12/15 10:12:42;;;;;;;9.25;5.30;;;;;;;-3.44;100.00;100560.72;6246040;28;20049;-72
2022/12/15 10:15:51;;;;;;;18.50;5.13;;;;;;;-3.38;100.00;100555.56;6246155;28;20369;-72
2022/12/15 10:19:04;;;;;;;12.63;5.18;;;;;;;-3.28;100.00;100556.41;6246468;28;20056;-73
2022/12/15 10:22:11;;;;;;;14.27;6.00;;;;;;;-3.26;100.00;100561.56;6246026;28;20068;-73
2022/12/15 10:25:16;;;;;;;14.10;6.28;;;;;;;-3.13;100.00;100565.84;6246246;28;20041;-73
2022/12/15 10:28:49;;;;;;;10.35;5.03;;;;;;;-3.11;100.00;100558.97;6246072;28;20049;-73
2022/12/15 10:31:54;;;;;;;15.15;6.28;;;;;;;-3.10;100.00;100556.41;6246031;28;20089;-72
2022/12/15 10:34:55;;;;;;;9.25;5.35;;;;;;;-3.04;100.00;100552.13;6246113;28;20056;-73
2022/12/15 10:37:59;;;;;;;15.98;5.25;;;;;;;-2.97;100.00;100553.84;6246175;28;20055;-72
2022/12/15 10:41:03;;;;;;;13.15;6.30;;;;;;;-2.91;100.00;100559.81;6246241;28;20061;-72
2022/12/15 10:44:23;;;;;;;13.40;6.40;;;;;;;-2.83;100.00;100570.09;6245902;28;20087;-72
2022/12/15 10:47:27;;;;;;;13.35;6.10;;;;;;;-2.76;100.00;100573.53;6246196;28;20045;-73
2022/12/15 10:50:28;;;;;;;13.68;5.28;;;;;;;-2.72;100.00;100563.22;6245867;28;20443;-73
2022/12/15 10:53:40;;;;;;;10.98;5.70;;;;;;;-2.68;100.00;100567.50;6245743;28;20053;-73
2022/12/15 10:56:48;;;;;;;8.35;4.97;;;;;;;-2.59;100.00;100557.19;6245902;28;20048;-74
2022/12/15 10:59:51;;;;;;;9.65;5.32;;;;;;;-2.51;100.00;100558.88;6246139;28;20045;-72
2022/12/15 11:02:54;;;;;;;17.42;6.13;;;;;;;-2.38;100.00;100561.41;6247731;28;20568;-72
2022/12/15 11:05:56;;;;;;;17.73;6.47;;;;;;;-2.28;100.00;100572.50;6250032;28;20042;-72
2022/12/15 11:09:08;;;;;;;20.38;5.80;;;;;;;-2.26;100.00;100572.53;6250258;28;20076;-73
2022/12/15 11:15:47;;;;;;;14.15;6.07;;;;;;;-2.11;100.00;100580.16;6249996;28;20045;-73
2022/12/15 11:18:53;;;;;;;9.68;5.45;;;;;;;-2.06;100.00;100581.84;6250170;28;20065;-73
2022/12/15 11:21:59;;;;;;;12.73;6.25;;;;;;;-1.97;100.00;100570.66;6249670;28;20557;-72
2022/12/15 11:25:09;;;;;;;15.48;5.55;;;;;;;-1.88;100.00;100580.06;6249874;28;20041;-73
2022/12/15 11:28:23;;;;;;;9.85;6.05;;;;;;;-1.70;100.00;100577.38;6249719;28;20057;-72
2022/12/15 11:31:30;;;;;;;12.27;5.50;;;;;;;-1.64;100.00;100571.31;6249784;28;20076;-73
2022/12/15 11:34:36;;;;;;;16.77;8.02;;;;;;;-1.55;100.00;100576.41;6249399;28;20052;-72
2022/12/15 11:37:41;;;;;;;10.73;7.55;;;;;;;-1.63;100.00;100573.91;6249604;28;20046;-72
2022/12/15 11:40:43;;;;;;;18.15;8.30;;;;;;;-1.63;100.00;100576.50;6249410;28;20072;-72
2022/12/15 11:44:02;;;;;;;13.55;6.22;;;;;;;-1.56;100.00;100577.28;6249424;28;20050;-72
2022/12/15 11:47:13;;;;;;;13.05;5.40;;;;;;;-1.55;100.00;100572.13;6249203;28;20053;-73
2022/12/15 11:50:25;;;;;;;10.98;4.90;;;;;;;-1.50;100.00;100584.13;6249126;28;20547;-73
2022/12/15 11:53:45;;;;;;;13.32;5.97;;;;;;;-1.42;100.00;100578.03;6249135;28;20053;-73
2022/12/15 11:56:51;;;;;;;16.75;6.68;;;;;;;-1.34;100.00;100572.84;6249303;28;20107;-73
2022/12/15 12:00:05;;;;;;;16.35;5.93;;;;;;;-1.22;100.00;100577.06;6248931;28;20053;-72
2022/12/15 12:03:19;;;;;;;11.75;5.68;;;;;;;-1.01;100.00;100569.13;6249062;28;20053;-72
2022/12/15 12:06:31;;;;;;;11.20;6.32;;;;;;;-0.83;100.00;100571.53;6248744;28;20045;-74
2022/12/15 12:09:36;;;;;;;13.82;7.10;;;;;;;-0.70;100.00;100571.41;6248986;28;20056;-74
2022/12/15 12:12:43;;;;;;;12.15;7.03;;;;;;;-0.64;100.00;100567.03;6247999;28;20664;-73
2022/12/15 12:15:54;;;;;;;15.15;7.00;;;;;;;-0.57;100.00;100573.00;6248726;28;20045;-73
2022/12/15 12:19:02;;;;;;;14.35;6.50;;;;;;;-0.61;100.00;100568.75;6248545;28;20456;-73
2022/12/15 12:22:11;;;;;;;11.65;5.45;;;;;;;-0.62;100.00;100567.91;6248575;28;20058;-74
2022/12/15 12:25:17;;;;;;;15.55;5.28;;;;;;;-0.61;100.00;100566.16;6248555;28;20049;-73
2022/12/15 12:28:24;;;;;;;15.95;6.43;;;;;;;-0.53;100.00;100561.78;6248563;28;20053;-75
2022/12/15 12:31:33;;;;;;;11.88;6.03;;;;;;;-0.58;100.00;100567.00;6248238;28;20049;-74
2022/12/15 12:34:41;;;;;;;;;;;;;;;-0.69;100.00;100567.97;6248549;28;20049;-73
2022/12/15 12:37:51;;;;;;;11.77;6.25;;;;;;;-0.79;100.00;100564.63;6248392;28;19921;-73
2022/12/15 12:41:01;;;;;;;20.83;6.45;;;;;;;-0.89;100.00;100563.88;6248181;28;20045;-72
2022/12/15 12:44:11;;;;;;;11.50;6.82;;;;;;;-0.84;100.00;100568.97;6248139;28;20045;-72
2022/12/15 12:47:19;;;;;;;14.63;6.32;;;;;;;-0.88;100.00;100575.88;6248152;28;20045;-72
2022/12/15 12:50:22;;;;;;;10.80;6.32;;;;;;;-0.86;100.00;100579.31;6248027;28;20060;-73
2022/12/15 12:53:33;;;;;;;13.05;6.63;;;;;;;-0.80;100.00;100575.81;6247735;28;20520;-73
2022/12/15 12:56:40;;;;;;;18.35;8.25;;;;;;;-0.80;100.00;100571.50;6247914;28;20046;-75
2022/12/15 12:59:43;;;;;;;14.13;6.30;;;;;;;-0.86;100.00;100575.91;6247805;28;20053;-75
2022/12/15 13:03:17;;;;;;;11.02;6.45;;;;;;;-0.87;100.00;100559.53;6247536;28;20052;-74
2022/12/15 13:06:53;;;;;;;14.23;6.97;;;;;;;-0.86;100.00;100556.09;6247517;28;20045;-73
2022/12/15 13:10:16;;;;;;;15.10;6.25;;;;;;;-0.77;100.00;100565.47;6247214;28;20613;-75
2022/12/15 13:13:37;;;;;;;9.65;4.93;;;;;;;-0.78;100.00;100564.59;6247381;28;20056;-73
2022/12/15 13:16:39;;;;;;;12.60;5.95;;;;;;;-0.84;100.00;100554.34;6247118;28;20547;-73
2022/12/15 13:20:29;;;;;;;9.98;5.78;;;;;;;-0.87;100.00;100554.38;6247151;28;20420;-73
2022/12/15 13:23:39;;;;;;;13.18;6.05;;;;;;;-0.84;100.00;100551.78;6247124;28;20052;-73
2022/12/15 13:26:44;;;;;;;14.93;5.75;;;;;;;-0.87;100.00;100551.78;6246618;28;20052;-72
2022/12/15 13:29:56;;;;;;;24.83;7.72;;;;;;;-0.80;100.00;100543.13;6246895;28;20049;-72
2022/12/15 13:33:17;;;;;;;13.10;6.03;;;;;;;-0.81;100.00;100548.31;6247098;28;20536;-74
2022/12/15 13:36:42;;;;;;;12.23;6.15;;;;;;;-0.87;100.00;100549.22;6247119;28;20243;-73
2022/12/15 13:39:57;;;;;;;10.23;5.57;;;;;;;-0.87;100.00;100544.06;6246812;28;20045;-72
2022/12/15 13:43:09;;;;;;;11.18;5.40;;;;;;;-0.85;100.00;100544.06;6247037;28;20050;-73
2022/12/15 13:46:15;;;;;;;17.15;5.90;;;;;;;-0.89;100.00;100548.38;6246556;28;20531;-72
2022/12/15 13:49:24;;;;;;;11.95;6.55;;;;;;;-0.89;100.00;100548.38;6246912;28;20045;-73
2022/12/15 13:52:29;;;;;;;16.00;6.07;;;;;;;-0.86;100.00;100557.84;6246514;28;20053;-73
2022/12/15 13:55:37;;;;;;;14.52;6.75;;;;;;;-0.85;100.00;100562.97;6246516;28;20053;-74
2022/12/15 13:58:44;;;;;;;11.27;5.97;;;;;;;-0.81;100.00;100571.53;6246590;28;20049;-73
2022/12/15 14:01:50;;;;;;;11.15;6.25;;;;;;;-0.84;100.00;100563.81;6246731;28;20127;-73
2022/12/15 14:05:06;;;;;;;16.60;7.78;;;;;;;-0.89;100.00;100563.88;6246738;28;20049;-73
2022/12/15 14:08:13;;;;;;;13.18;4.85;;;;;;;-0.92;100.00;100568.19;6246539;28;20045;-74
2022/12/15 14:11:22;;;;;;;19.42;7.88;;;;;;;-0.90;100.00;100562.16;6246190;28;20147;-73
2022/12/15 14:14:27;;;;;;;15.95;5.72;;;;;;;-0.87;100.00;100561.25;6245985;28;20452;-72
2022/12/15 14:17:32;;;;;;;18.45;7.07;;;;;;;-0.90;100.00;100561.31;6246232;28;20398;-73
2022/12/15 14:20:40;;;;;;;10.18;6.32;;;;;;;-0.94;100.00;100563.06;6246303;28;20099;-72
2022/12/15 14:23:43;;;;;;;17.53;7.43;;;;;;;-1.00;100.00;100565.66;6246190;28;20507;-73
2022/12/15 14:26:45;;;;;;;12.77;7.03;;;;;;;-1.05;100.00;100572.59;6246341;28;20073;-73
2022/12/15 14:29:47;;;;;;;14.35;6.47;;;;;;;-1.09;100.00;100571.78;6245619;28;20049;-73
2022/12/15 14:32:52;;;;;;;8.10;5.03;;;;;;;-1.12;100.00;100574.38;6243451;28;20053;-73
2022/12/15 14:35:57;;;;;;;12.73;6.32;;;;;;;-1.20;100.00;100576.16;6246252;28;20409;-73
2022/12/15 14:39:01;;;;;;;13.15;6.45;;;;;;;-1.22;100.00;100569.34;6251137;28;20049;-72
2022/12/15 14:42:05;;;;;;;12.27;6.28;;;;;;;-1.27;100.00;100566.78;6250630;28;20057;-75
2022/12/15 14:45:18;;;;;;;10.88;6.55;;;;;;;-1.30;100.00;100572.81;6250635;28;20539;-74
2022/12/15 14:48:27;;;;;;;13.68;6.10;;;;;;;-1.34;100.00;100565.13;6250743;28;20049;-73
2022/12/15 14:51:30;;;;;;;;;;;;;;;-1.40;100.00;100562.59;6251080;28;20057;-72
2022/12/15 14:54:35;;;;;;;11.90;5.25;;;;;;;-1.49;100.00;100568.66;6250186;28;19928;-72
2022/12/15 14:57:45;;;;;;;10.15;5.53;;;;;;;-1.60;100.00;100562.72;6250605;28;20046;-71
2022/12/15 15:00:51;;;;;;;18.45;7.28;;;;;;;-1.67;100.00;100563.63;6250154;28;20065;-72
2022/12/15 15:04:00;;;;;;;10.68;5.53;;;;;;;-1.70;100.00;100563.66;6250396;28;20061;-73
2022/12/15 15:07:04;;;;;;;14.75;7.30;;;;;;;-1.73;100.00;100553.34;6250270;28;20046;-73
2022/12/15 15:10:22;;;;;;;7.70;4.78;;;;;;;-1.77;100.00;100556.81;6249933;28;20405;-75
2022/12/15 15:13:30;;;;;;;11.93;6.90;;;;;;;-1.84;100.00;100550.84;6249929;28;20060;-75
2022/12/15 15:16:33;;;;;;;15.13;8.13;;;;;;;-1.90;100.00;100548.31;6249658;28;20447;-73
2022/12/15 15:19:38;;;;;;;14.95;6.28;;;;;;;-1.96;100.00;100544.03;6250020;28;20053;-75
2022/12/15 15:22:42;;;;;;;13.98;6.47;;;;;;;-2.02;100.00;100546.66;6249971;28;20050;-75
2022/12/15 15:25:49;;;;;;;12.82;5.28;;;;;;;-2.07;100.00;100544.09;6249888;28;20047;-74
2022/12/15 15:28:51;;;;;;;16.40;8.05;;;;;;;-2.11;100.00;100547.56;6250018;28;20050;-73
2022/12/15 15:32:06;;;;;;;11.90;5.72;;;;;;;-2.18;100.00;100560.44;6249548;28;20076;-73
2022/12/15 15:35:08;;;;;;;23.80;6.93;;;;;;;-2.23;100.00;100554.47;6249604;28;20463;-75
2022/12/15 15:38:19;;;;;;;12.38;6.07;;;;;;;-2.21;100.00;100563.91;6249462;28;20050;-73
2022/12/15 15:41:27;;;;;;;13.90;7.07;;;;;;;-2.26;100.00;100560.50;6249660;28;20130;-75
2022/12/15 15:44:28;;;;;;;19.30;8.30;;;;;;;-2.29;100.00;100552.78;6249301;28;20049;-73
2022/12/15 15:47:31;;;;;;;23.10;8.18;;;;;;;-2.31;100.00;100552.81;6249257;28;20054;-73
2022/12/15 15:50:33;;;;;;;15.48;6.43;;;;;;;-2.38;100.00;100555.41;6249235;28;20056;-75
2022/12/15 15:53:35;;;;;;;18.13;8.23;;;;;;;-2.38;100.00;100558.81;6249020;28;20053;-73
2022/12/15 15:56:37;;;;;;;16.55;8.23;;;;;;;-2.44;100.00;100560.56;6248976;28;20054;-73
2022/12/15 15:59:41;;;;;;;13.00;7.78;;;;;;;-2.47;100.00;100561.44;6249060;28;20493;-74
2022/12/15 16:02:43;;;;;;;17.60;8.77;;;;;;;-2.48;100.00;100562.28;6248978;28;20046;-75
2022/12/15 16:05:45;;;;;;;15.88;7.32;;;;;;;-2.49;100.00;100576.03;6248852;28;20057;-74
2022/12/15 16:08:50;;;;;;;16.20;6.78;;;;;;;-2.53;100.00;100576.91;6249104;28;20052;-73
2022/12/15 16:11:52;;;;;;;22.95;8.32;;;;;;;-2.51;100.00;100575.16;6248762;28;20060;-73
2022/12/15 16:14:54;;;;;;;22.77;9.35;;;;;;;-2.51;100.00;100570.00;6248478;28;20060;-72
2022/12/15 16:17:57;;;;;;;19.58;8.25;;;;;;;-2.56;100.00;100566.59;6248592;28;20497;-76
2022/12/15 16:20:59;;;;;;;16.00;7.10;;;;;;;-2.59;100.00;100570.06;6248584;28;20049;-77
2022/12/15 16:24:06;;;;;;;22.70;8.68;;;;;;;-2.60;100.00;100572.63;6248392;28;20525;-77
2022/12/15 16:27:10;;;;;;;19.35;7.45;;;;;;;-2.63;100.00;100570.91;6248873;28;20305;-73
2022/12/15 16:30:21;;;;;;;17.42;7.70;;;;;;;-2.71;100.00;100572.66;6248289;28;20060;-75
2022/12/15 16:33:24;;;;;;;16.15;8.10;;;;;;;-2.67;100.00;100582.06;6248701;28;20183;-76
2022/12/15 16:36:25;;;;;;;21.05;7.45;;;;;;;-2.71;100.00;100576.94;6247924;28;20072;-74
2022/12/15 16:39:30;;;;;;;16.35;7.60;;;;;;;-2.77;100.00;100572.66;6248453;28;20520;-74